Nearby METAR Reports

 

KCXP - Carson City, Nevada, USA
Distance from station: WSW 2mi, 3km
Updated: Sat, Jan-20-2018 8:15pm PST
Clear
Clear
 Wind from NW
Wind: NW 8 mph , 13 km/h
Temperature: 32°F , 0°C
Wind Chill: 25°F , -4°C
Dew Point: 18°F , -8°C
Humidity: 55%
Barometer: 30.18 inHg , 1022 hPa
Clouds: Clear
Visibility: 10 miles , 16 km
2018/01/21 04:15 KCXP 210415Z AUTO 32007KT 10SM CLR 00/M08 A3018 RMK AO2
KRNO - Reno, Nevada, USA
Distance from station: N 21mi, 34km
Updated: Sat, Jan-20-2018 7:55pm PST
Clear
Clear
 Wind from N
Wind: N 5 mph , 7 km/h
Temperature: 30°F , -1°C
Wind Chill: 25°F , -4°C
Dew Point: 18°F , -8°C
Humidity: 59%
Barometer: 30.17 inHg , 1021.7 hPa
Clouds: Clear
Visibility: 10 miles , 16 km
2018/01/21 03:55 KRNO 210355Z 36004KT 10SM CLR M01/M08 A3017 RMK AO2 SLP233 T10061078 $
 
KTRK - Truckee Tahoe, California, USA
Distance from station: WNW 24mi, 38km
Updated: Sat, Jan-20-2018 8:15pm PST
Clear
Clear
 Wind from calm
Wind: Calm
Temperature: 19°F , -7°C
Dew Point: 18°F , -8°C
Humidity: 93%
Barometer: 30.16 inHg , 1021.3 hPa
Clouds: Clear
Visibility: 10 miles , 16 km
2018/01/21 04:15 KTRK 210415Z AUTO 00000KT 10SM CLR M07/M08 A3016 RMK AO2
KTVL - South Lake Tahoe, California, USA
Distance from station: SW 26mi, 42km
Updated: Sat, Jan-20-2018 7:53pm PST
Few Clouds
Few Clouds
 Wind from calm
Wind: Calm
Temperature: 18°F , -8°C
Dew Point: 16°F , -9°C
Humidity: 93%
Barometer: 30.12 inHg , 1020 hPa
Clouds: Few Clouds
Visibility: 10 miles , 16 km
Cloud details: Few Clouds 3800 ft
2018/01/21 03:53 KTVL 210353Z AUTO 00000KT 10SM FEW038 M08/M09 A3012 RMK AO2 SLP245 T10781094
 
KRTS - Reno/Stead, Nevada, USA
Distance from station: NNW 34mi, 54km
Updated: Sat, Jan-20-2018 8:15pm PST
Clear
Clear
 Wind from N
Wind: N 3 mph , 6 km/h
Temperature: 25°F , -4°C
Dew Point: 16°F , -9°C
Humidity: 69%
Barometer: 30.19 inHg , 1022.4 hPa
Clouds: Clear
Visibility: 10 miles , 16 km
2018/01/21 04:15 KRTS 210415Z AUTO 35003KT 10SM CLR M04/M09 A3019 RMK AO2
KBLU - Emigrant Gap, California, USA
Distance from station: W 54mi, 87km
Updated: Sat, Jan-20-2018 7:52pm PST
Clear
Clear
 Wind from NE
Wind: NE 5 mph , 7 km/h
Temperature: 30°F , -1°C
Wind Chill: 25°F , -4°C
Dew Point: 19°F , -7°C
Humidity: 64%
Barometer: 30.14 inHg , 1020.7 hPa
Clouds: Clear
Visibility: 10 miles , 16 km
2018/01/21 03:52 KBLU 210352Z AUTO 04004KT 10SM CLR M01/M07 A3014 RMK AO2 SLP234 T10111072
 
KNFL - Fallon Nas, Nevada, USA
Distance from station: ENE 56mi, 89km
Updated: Sat, Jan-20-2018 7:56pm PST
Clear
Clear
 Wind from NW
Wind: NW 5 mph , 7 km/h
Temperature: 28°F , -2°C
Wind Chill: 22°F , -6°C
Dew Point: -2°F , -19°C
Humidity: 26%
Barometer: 30.16 inHg , 1021.3 hPa
Clouds: Clear
Visibility: 10 miles , 16 km
2018/01/21 03:56 KNFL 210356Z AUTO 31004KT 10SM CLR M02/M19 A3016 RMK AO2 SLP176 T10171189
KBAN - Bridgeport(Mcmwt, California, USA
Distance from station: S 60mi, 96km
Updated: Thu, Nov-09-2017 4:52am PST
NOT Current
Few Clouds
Few Clouds
 Wind from WSW
Wind: WSW 23 mph , 37 km/h, Gust: 37 mph , 59 km/h
Barometer: 29.95 inHg , 1014.2 hPa
Clouds: Few Clouds
Visibility: 10 miles , 16 km
Cloud details: Few Clouds 3500 ft
2017/11/09 12:52 KBAN 091252Z AUTO 24020G32KT 10SM FEW035 A2995 RMK AO2 PK WND 25042/1220 SNB00E04 SLPNO P0000 $
 
KPVF - Placerville, California, USA
Distance from station: WSW 66mi, 105km
Updated: Sat, Jan-20-2018 7:55pm PST
Clear
Clear
 Wind from E
Wind: E 7 mph , 11 km/h
Temperature: 36°F , 2°C
Wind Chill: 30°F , -1°C
Dew Point: 30°F , -1°C
Humidity: 81%
Barometer: 30.19 inHg , 1022.4 hPa
Clouds: Clear
Visibility: 10 miles , 16 km
2018/01/21 03:55 KPVF 210355Z AUTO 10006KT 10SM CLR 02/M01 A3019 RMK AO1
KGOO - Grass Valley, California, USA
Distance from station: W 70mi, 112km
Updated: Sat, Jan-20-2018 8:20pm PST
Clear
Clear
 Wind from SE
Wind: SE 3 mph , 6 km/h
Temperature: 37°F , 3°C
Dew Point: 30°F , -1°C
Humidity: 75%
Barometer: 30.17 inHg , 1021.7 hPa
Clouds: Clear
Visibility: 10 miles , 16 km
2018/01/21 04:20 KGOO 210420Z AUTO 13003KT 10SM CLR 03/M01 A3017 RMK AO1
 
KAUN - Auburn Muni, California, USA
Distance from station: WSW 76mi, 123km
Updated: Sat, Jan-20-2018 8:15pm PST
Clear
Clear
 Wind from calm
Wind: Calm
Temperature: 39°F , 4°C
Dew Point: 34°F , 1°C
Humidity: 81%
Barometer: 30.20 inHg , 1022.7 hPa
Clouds: Clear
Visibility: 10 miles , 16 km
2018/01/21 04:15 KAUN 210415Z AUTO 00000KT 10SM CLR 04/01 A3020 RMK AO1
KLOL - Lovelock, Nevada, USA
Distance from station: NE 85mi, 137km
Updated: Sat, Jan-20-2018 7:53pm PST
Overcast
Overcast
 Wind from S
Wind: S 3 mph , 6 km/h
Temperature: 28°F , -2°C
Dew Point: 16°F , -9°C
Humidity: 59%
Barometer: 30.15 inHg , 1021 hPa
Clouds: Overcast
Visibility: 10 miles , 16 km
Cloud details: Overcast 6000 ft
2018/01/21 03:53 KLOL 210353Z AUTO 17003KT 10SM OVC060 M02/M09 A3015 RMK AO2 SLP241 T10171094
 
KLHM - Lincoln, California, USA
Distance from station: WSW 91mi, 146km
Updated: Sat, Jan-20-2018 8:15pm PST
Clear
Clear
 Wind from ESE
Wind: ESE 6 mph , 9 km/h
Barometer: 30.21 inHg , 1023 hPa
Clouds: Clear
Visibility: 10 miles , 16 km
2018/01/21 04:15 KLHM 210415Z AUTO 11005KT 10SM CLR A3021 RMK AO1
KBAB - Beale Afb/Marysv, California, USA
Distance from station: W 92mi, 148km
Updated: Sat, Jan-20-2018 7:58pm PST
Clear
Clear
 Wind from E
Wind: E 9 mph , 15 km/h
Temperature: 39°F , 4°C
Wind Chill: 33°F , 1°C
Dew Point: 34°F , 1°C
Humidity: 81%
Barometer: 30.18 inHg , 1022 hPa
Clouds: Clear
Visibility: 10 miles , 16 km
2018/01/21 03:58 KBAB 210358Z AUTO 10008KT 10SM CLR 04/01 A3018 RMK AO2 SLP224 T00440013 $
 
KMHR - Mather Field, California, USA
Distance from station: WSW 97mi, 156km
Updated: Sat, Jan-20-2018 7:45pm PST
Clear
Clear
 Wind from SE
Wind: SE 5 mph , 7 km/h
Temperature: 46°F , 8°C
Wind Chill: 44°F , 7°C
Dew Point: 34°F , 1°C
Humidity: 62%
Barometer: 30.20 inHg , 1022.7 hPa
Clouds: Clear
Visibility: 10 miles , 16 km
2018/01/21 03:45 KMHR 210345Z 13004KT 10SM SKC 08/01 A3020
KMCC - Mcclellan Afb, California, USA
Distance from station: WSW 99mi, 159km
Updated: Sat, Jan-20-2018 8:10pm PST
Clear
Clear
 Wind from calm
Wind: Calm
Temperature: 43°F , 6°C
Dew Point: 36°F , 2°C
Humidity: 76%
Barometer: 30.23 inHg , 1023.7 hPa
Clouds: Clear
Visibility: 10 miles , 16 km
2018/01/21 04:10 KMCC 210410Z AUTO 00000KT 10SM CLR 06/02 A3023 RMK AO2
 
KMYV - Marysville, California, USA
Distance from station: W 100mi, 161km
Updated: Sat, Jan-20-2018 7:53pm PST
Clear
Clear
 Wind from calm
Wind: Calm
Temperature: 43°F , 6°C
Dew Point: 36°F , 2°C
Humidity: 76%
Barometer: 30.20 inHg , 1022.7 hPa
Clouds: Clear
Visibility: 10 miles , 16 km
2018/01/21 03:53 KMYV 210353Z AUTO 00000KT 10SM CLR 06/02 A3020 RMK AO2 SLP232 T00560017